createdAt,value
2022-12-08T16:18:27.100Z,96813.3
2022-12-08T16:33:41.029Z,96824.52
2022-12-08T16:38:43.148Z,96824.52
2022-12-08T16:43:44.988Z,96828.28
2022-12-08T16:48:46.888Z,96828.28
2022-12-08T16:53:48.750Z,96840.03
2022-12-08T16:58:51.474Z,96835.16
2022-12-08T17:08:59.645Z,96847.79
2022-12-08T17:14:01.713Z,96847.79
2022-12-08T17:19:05.221Z,96847.41
2022-12-08T17:24:07.374Z,96847.41
2022-12-08T17:29:10.126Z,96832.44
2022-12-08T17:34:12.581Z,96832.44
2022-12-08T17:39:19.900Z,96818.02
2022-12-08T17:44:22.059Z,96818.02
2022-12-08T17:49:25.731Z,96816.38
2022-12-08T17:54:29.176Z,96826.98
2022-12-08T17:59:31.721Z,96826.98
2022-12-08T18:04:34.289Z,96819.94
2022-12-08T18:09:36.822Z,96819.94
2022-12-08T18:14:41.498Z,96821
2022-12-08T18:19:44.159Z,96821
2022-12-08T18:24:47.498Z,96807.3
2022-12-08T18:29:50.160Z,96807.3
2022-12-08T18:34:53.115Z,96800.87
2022-12-08T18:39:56.202Z,96809.94
2022-12-08T18:44:59.274Z,96809.94
2022-12-08T18:50:01.993Z,96823.07
2022-12-08T18:55:10.663Z,96823.07
2022-12-08T19:00:15.358Z,96812.3
2022-12-08T19:05:19.029Z,96812.3
2022-12-08T19:10:22.339Z,96811.45
2022-12-08T19:15:26.519Z,96811.45
2022-12-08T19:20:29.840Z,96784.28
2022-12-08T19:25:32.723Z,96784.28
2022-12-08T19:30:39.460Z,96782.5
2022-12-08T19:40:50.905Z,96779.61
2022-12-08T19:45:56.173Z,96780.43
2022-12-08T19:50:59.802Z,96780.43
2022-12-08T19:56:03.739Z,96787.66
2022-12-08T20:01:07.286Z,96787.66
2022-12-08T20:06:12.939Z,96788.86
2022-12-08T20:11:16.820Z,96788.86
2022-12-08T20:16:21.494Z,96787.7
2022-12-08T20:21:24.590Z,96780.93
2022-12-08T20:26:28.950Z,96780.93
2022-12-08T20:31:32.924Z,96776.05
2022-12-08T20:36:37.444Z,96776.05
2022-12-08T20:41:41.088Z,96772.28
2022-12-08T20:51:50.410Z,96771.81
2022-12-08T20:56:53.475Z,96771.81
2022-12-08T21:01:57.074Z,96786.66
2022-12-08T21:07:00.516Z,96786.66
2022-12-08T21:12:03.747Z,96783.1
2022-12-08T21:17:06.780Z,96783.3
2022-12-08T21:22:09.833Z,96783.3
2022-12-08T21:27:11.900Z,96788.44
2022-12-08T21:32:14.620Z,96788.44
2022-12-08T21:37:16.857Z,96768.41
2022-12-08T21:42:27.925Z,96768.41
2022-12-08T21:47:31.666Z,96767.13
2022-12-08T21:52:36.671Z,96767.13
2022-12-08T21:57:38.991Z,96767.13
2022-12-08T22:02:41.815Z,96767.13
2022-12-08T22:07:44.733Z,96767.13
2022-12-08T22:12:47.025Z,96767.13
2022-12-08T22:17:49.546Z,96767.13
2022-12-08T22:22:51.982Z,96767.13
2022-12-08T22:27:54.435Z,96767.13
2022-12-08T22:32:57.624Z,96767.13
2022-12-08T22:37:59.983Z,96767.13
2022-12-08T22:43:02.246Z,96767.13
